sensor_id;sensor_type;location;lat;lon;timestamp;P1;durP1;ratioP1;P2;durP2;ratioP2
57551;SDS011;43379;48.160;14.036;2023-03-20T00:01:04;18.83;;;17.13;;
57551;SDS011;43379;48.160;14.036;2023-03-20T00:03:42;19.03;;;17.23;;
57551;SDS011;43379;48.160;14.036;2023-03-20T00:06:11;18.70;;;17.07;;
57551;SDS011;43379;48.160;14.036;2023-03-20T00:08:40;17.63;;;15.87;;
57551;SDS011;43379;48.160;14.036;2023-03-20T00:11:10;18.50;;;16.90;;
57551;SDS011;43379;48.160;14.036;2023-03-20T00:13:51;22.43;;;18.30;;
57551;SDS011;43379;48.160;14.036;2023-03-20T00:16:17;17.83;;;16.33;;
57551;SDS011;43379;48.160;14.036;2023-03-20T00:18:44;18.40;;;16.80;;
57551;SDS011;43379;48.160;14.036;2023-03-20T00:21:16;18.10;;;16.60;;
57551;SDS011;43379;48.160;14.036;2023-03-20T00:23:43;21.37;;;16.50;;
57551;SDS011;43379;48.160;14.036;2023-03-20T00:26:13;17.70;;;16.17;;
57551;SDS011;43379;48.160;14.036;2023-03-20T00:28:43;19.47;;;17.77;;
57551;SDS011;43379;48.160;14.036;2023-03-20T00:31:34;19.83;;;18.13;;
57551;SDS011;43379;48.160;14.036;2023-03-20T00:34:03;17.70;;;16.30;;
57551;SDS011;43379;48.160;14.036;2023-03-20T00:36:31;19.23;;;17.30;;
57551;SDS011;43379;48.160;14.036;2023-03-20T00:38:57;18.83;;;17.37;;
57551;SDS011;43379;48.160;14.036;2023-03-20T00:46:45;20.27;;;18.27;;
57551;SDS011;43379;48.160;14.036;2023-03-20T00:49:18;18.13;;;16.53;;
57551;SDS011;43379;48.160;14.036;2023-03-20T00:51:48;18.87;;;17.27;;
57551;SDS011;43379;48.160;14.036;2023-03-20T00:54:15;18.13;;;16.57;;
57551;SDS011;43379;48.160;14.036;2023-03-20T00:56:42;19.03;;;17.50;;
57551;SDS011;43379;48.160;14.036;2023-03-20T00:59:16;18.13;;;16.50;;
57551;SDS011;43379;48.160;14.036;2023-03-20T01:01:44;19.10;;;17.30;;
57551;SDS011;43379;48.160;14.036;2023-03-20T01:04:11;19.00;;;17.23;;
57551;SDS011;43379;48.160;14.036;2023-03-20T01:06:38;19.87;;;18.27;;
57551;SDS011;43379;48.160;14.036;2023-03-20T01:09:04;18.83;;;17.03;;
57551;SDS011;43379;48.160;14.036;2023-03-20T01:11:30;19.90;;;18.00;;
57551;SDS011;43379;48.160;14.036;2023-03-20T01:13:56;18.23;;;16.90;;
57551;SDS011;43379;48.160;14.036;2023-03-20T01:16:23;18.50;;;16.80;;
57551;SDS011;43379;48.160;14.036;2023-03-20T01:18:50;17.47;;;15.80;;
57551;SDS011;43379;48.160;14.036;2023-03-20T01:21:16;17.30;;;15.90;;
57551;SDS011;43379;48.160;14.036;2023-03-20T01:23:43;17.37;;;15.70;;
57551;SDS011;43379;48.160;14.036;2023-03-20T01:26:23;19.20;;;17.50;;
57551;SDS011;43379;48.160;14.036;2023-03-20T01:28:56;17.73;;;16.13;;
57551;SDS011;43379;48.160;14.036;2023-03-20T01:31:22;16.37;;;14.93;;
57551;SDS011;43379;48.160;14.036;2023-03-20T01:33:47;17.57;;;15.97;;
57551;SDS011;43379;48.160;14.036;2023-03-20T01:36:14;17.57;;;15.90;;
57551;SDS011;43379;48.160;14.036;2023-03-20T01:38:41;17.07;;;15.53;;
57551;SDS011;43379;48.160;14.036;2023-03-20T01:43:40;17.63;;;16.00;;
57551;SDS011;43379;48.160;14.036;2023-03-20T01:51:16;17.27;;;15.77;;
57551;SDS011;43379;48.160;14.036;2023-03-20T01:53:47;16.93;;;15.63;;
57551;SDS011;43379;48.160;14.036;2023-03-20T01:56:16;16.73;;;15.33;;
57551;SDS011;43379;48.160;14.036;2023-03-20T01:58:45;17.23;;;15.83;;
57551;SDS011;43379;48.160;14.036;2023-03-20T02:01:15;16.23;;;14.73;;
57551;SDS011;43379;48.160;14.036;2023-03-20T02:03:42;16.60;;;13.90;;
57551;SDS011;43379;48.160;14.036;2023-03-20T02:06:11;15.73;;;14.50;;
57551;SDS011;43379;48.160;14.036;2023-03-20T02:08:41;16.33;;;15.10;;
57551;SDS011;43379;48.160;14.036;2023-03-20T02:11:12;15.83;;;14.23;;
57551;SDS011;43379;48.160;14.036;2023-03-20T02:13:40;16.33;;;14.97;;
57551;SDS011;43379;48.160;14.036;2023-03-20T02:16:11;16.77;;;15.27;;
57551;SDS011;43379;48.160;14.036;2023-03-20T02:18:39;17.00;;;15.60;;
57551;SDS011;43379;48.160;14.036;2023-03-20T02:37:51;16.60;;;15.20;;
57551;SDS011;43379;48.160;14.036;2023-03-20T02:49:13;19.60;;;17.80;;
57551;SDS011;43379;48.160;14.036;2023-03-20T03:03:28;16.00;;;14.50;;
57551;SDS011;43379;48.160;14.036;2023-03-20T03:06:01;15.93;;;14.53;;
57551;SDS011;43379;48.160;14.036;2023-03-20T03:08:37;17.77;;;16.40;;
57551;SDS011;43379;48.160;14.036;2023-03-20T03:11:08;16.20;;;14.80;;
57551;SDS011;43379;48.160;14.036;2023-03-20T03:13:44;17.73;;;16.20;;
57551;SDS011;43379;48.160;14.036;2023-03-20T03:16:16;17.27;;;15.77;;
57551;SDS011;43379;48.160;14.036;2023-03-20T03:18:56;16.60;;;15.20;;
57551;SDS011;43379;48.160;14.036;2023-03-20T03:21:27;16.10;;;14.80;;
57551;SDS011;43379;48.160;14.036;2023-03-20T03:23:54;17.67;;;16.07;;
57551;SDS011;43379;48.160;14.036;2023-03-20T03:26:21;16.50;;;15.10;;
57551;SDS011;43379;48.160;14.036;2023-03-20T03:28:55;16.50;;;15.10;;
57551;SDS011;43379;48.160;14.036;2023-03-20T03:31:23;16.43;;;14.93;;
57551;SDS011;43379;48.160;14.036;2023-03-20T03:33:51;15.47;;;14.03;;
57551;SDS011;43379;48.160;14.036;2023-03-20T03:41:45;14.90;;;13.60;;
57551;SDS011;43379;48.160;14.036;2023-03-20T03:49:32;14.97;;;13.47;;
57551;SDS011;43379;48.160;14.036;2023-03-20T03:52:06;14.90;;;13.40;;
57551;SDS011;43379;48.160;14.036;2023-03-20T03:54:40;16.30;;;14.87;;
57551;SDS011;43379;48.160;14.036;2023-03-20T03:57:09;15.33;;;14.03;;
57551;SDS011;43379;48.160;14.036;2023-03-20T03:59:40;15.33;;;13.83;;
57551;SDS011;43379;48.160;14.036;2023-03-20T04:02:10;15.67;;;14.20;;
57551;SDS011;43379;48.160;14.036;2023-03-20T04:04:38;15.70;;;14.57;;
57551;SDS011;43379;48.160;14.036;2023-03-20T04:07:07;13.43;;;12.43;;
57551;SDS011;43379;48.160;14.036;2023-03-20T04:09:33;13.57;;;12.47;;
57551;SDS011;43379;48.160;14.036;2023-03-20T04:11:58;13.57;;;12.47;;
57551;SDS011;43379;48.160;14.036;2023-03-20T04:14:24;13.93;;;12.73;;
57551;SDS011;43379;48.160;14.036;2023-03-20T04:16:51;14.63;;;13.23;;
57551;SDS011;43379;48.160;14.036;2023-03-20T04:19:16;15.27;;;14.00;;
57551;SDS011;43379;48.160;14.036;2023-03-20T04:21:42;14.33;;;13.23;;
57551;SDS011;43379;48.160;14.036;2023-03-20T04:24:09;13.43;;;12.30;;
57551;SDS011;43379;48.160;14.036;2023-03-20T04:26:36;14.80;;;13.47;;
57551;SDS011;43379;48.160;14.036;2023-03-20T04:29:01;13.33;;;12.23;;
57551;SDS011;43379;48.160;14.036;2023-03-20T04:31:27;13.53;;;12.40;;
57551;SDS011;43379;48.160;14.036;2023-03-20T04:33:53;12.73;;;11.63;;
57551;SDS011;43379;48.160;14.036;2023-03-20T04:36:19;13.73;;;12.43;;
57551;SDS011;43379;48.160;14.036;2023-03-20T04:38:45;12.83;;;11.83;;
57551;SDS011;43379;48.160;14.036;2023-03-20T04:41:11;13.50;;;12.30;;
57551;SDS011;43379;48.160;14.036;2023-03-20T04:43:37;15.30;;;13.90;;
57551;SDS011;43379;48.160;14.036;2023-03-20T04:46:04;15.40;;;14.20;;
57551;SDS011;43379;48.160;14.036;2023-03-20T04:48:30;13.33;;;12.23;;
57551;SDS011;43379;48.160;14.036;2023-03-20T04:50:56;15.00;;;13.80;;
57551;SDS011;43379;48.160;14.036;2023-03-20T04:53:21;15.40;;;14.10;;
57551;SDS011;43379;48.160;14.036;2023-03-20T04:55:47;14.77;;;13.57;;
57551;SDS011;43379;48.160;14.036;2023-03-20T04:58:15;14.73;;;13.53;;
57551;SDS011;43379;48.160;14.036;2023-03-20T05:00:41;15.83;;;13.90;;
57551;SDS011;43379;48.160;14.036;2023-03-20T05:03:08;14.43;;;12.97;;
57551;SDS011;43379;48.160;14.036;2023-03-20T05:05:33;15.27;;;13.90;;
57551;SDS011;43379;48.160;14.036;2023-03-20T05:08:02;14.83;;;13.63;;
57551;SDS011;43379;48.160;14.036;2023-03-20T05:10:29;14.00;;;12.90;;
57551;SDS011;43379;48.160;14.036;2023-03-20T05:12:55;15.37;;;14.17;;
57551;SDS011;43379;48.160;14.036;2023-03-20T05:15:21;15.07;;;13.70;;
57551;SDS011;43379;48.160;14.036;2023-03-20T05:17:46;15.57;;;14.17;;
57551;SDS011;43379;48.160;14.036;2023-03-20T05:20:12;15.10;;;13.80;;
57551;SDS011;43379;48.160;14.036;2023-03-20T05:22:38;15.43;;;14.13;;
57551;SDS011;43379;48.160;14.036;2023-03-20T05:25:04;16.90;;;15.57;;
57551;SDS011;43379;48.160;14.036;2023-03-20T05:27:30;16.97;;;15.47;;
57551;SDS011;43379;48.160;14.036;2023-03-20T05:29:55;16.53;;;15.03;;
57551;SDS011;43379;48.160;14.036;2023-03-20T05:32:21;17.57;;;16.13;;
57551;SDS011;43379;48.160;14.036;2023-03-20T05:34:47;17.57;;;16.07;;
57551;SDS011;43379;48.160;14.036;2023-03-20T05:37:12;16.57;;;15.20;;
57551;SDS011;43379;48.160;14.036;2023-03-20T05:39:38;17.40;;;15.80;;
57551;SDS011;43379;48.160;14.036;2023-03-20T05:42:03;17.13;;;15.63;;
57551;SDS011;43379;48.160;14.036;2023-03-20T05:44:29;17.10;;;15.70;;
57551;SDS011;43379;48.160;14.036;2023-03-20T05:46:55;16.77;;;15.37;;
57551;SDS011;43379;48.160;14.036;2023-03-20T05:49:21;18.90;;;17.50;;
57551;SDS011;43379;48.160;14.036;2023-03-20T05:51:46;19.13;;;17.53;;
57551;SDS011;43379;48.160;14.036;2023-03-20T05:54:12;16.23;;;15.03;;
57551;SDS011;43379;48.160;14.036;2023-03-20T05:56:38;17.30;;;15.83;;
57551;SDS011;43379;48.160;14.036;2023-03-20T05:59:03;18.03;;;16.33;;
57551;SDS011;43379;48.160;14.036;2023-03-20T06:01:29;18.33;;;16.40;;
57551;SDS011;43379;48.160;14.036;2023-03-20T06:03:55;19.70;;;18.10;;
57551;SDS011;43379;48.160;14.036;2023-03-20T06:06:20;20.30;;;18.60;;
57551;SDS011;43379;48.160;14.036;2023-03-20T06:08:46;21.80;;;19.90;;
57551;SDS011;43379;48.160;14.036;2023-03-20T06:11:12;20.07;;;17.97;;
57551;SDS011;43379;48.160;14.036;2023-03-20T06:13:37;19.60;;;17.90;;
57551;SDS011;43379;48.160;14.036;2023-03-20T06:16:03;21.23;;;19.43;;
57551;SDS011;43379;48.160;14.036;2023-03-20T06:18:29;22.83;;;21.03;;
57551;SDS011;43379;48.160;14.036;2023-03-20T06:20:55;26.90;;;25.00;;
57551;SDS011;43379;48.160;14.036;2023-03-20T06:23:22;26.30;;;23.90;;
57551;SDS011;43379;48.160;14.036;2023-03-20T06:25:48;22.73;;;20.93;;
57551;SDS011;43379;48.160;14.036;2023-03-20T06:28:14;19.77;;;18.27;;
57551;SDS011;43379;48.160;14.036;2023-03-20T06:30:41;19.17;;;17.47;;
57551;SDS011;43379;48.160;14.036;2023-03-20T06:33:07;17.83;;;16.33;;
57551;SDS011;43379;48.160;14.036;2023-03-20T06:35:33;18.20;;;16.70;;
57551;SDS011;43379;48.160;14.036;2023-03-20T06:38:00;19.57;;;16.73;;
57551;SDS011;43379;48.160;14.036;2023-03-20T06:40:26;17.00;;;15.60;;
57551;SDS011;43379;48.160;14.036;2023-03-20T06:42:52;17.10;;;15.70;;
57551;SDS011;43379;48.160;14.036;2023-03-20T06:45:19;17.63;;;15.83;;
57551;SDS011;43379;48.160;14.036;2023-03-20T06:47:45;18.30;;;16.80;;
57551;SDS011;43379;48.160;14.036;2023-03-20T06:50:11;15.80;;;14.30;;
57551;SDS011;43379;48.160;14.036;2023-03-20T06:52:37;17.97;;;16.23;;
57551;SDS011;43379;48.160;14.036;2023-03-20T06:55:04;17.07;;;15.67;;
57551;SDS011;43379;48.160;14.036;2023-03-20T06:57:31;17.00;;;15.50;;
57551;SDS011;43379;48.160;14.036;2023-03-20T06:59:57;16.23;;;14.83;;
57551;SDS011;43379;48.160;14.036;2023-03-20T07:02:23;16.10;;;14.83;;
57551;SDS011;43379;48.160;14.036;2023-03-20T07:04:49;16.07;;;14.57;;
57551;SDS011;43379;48.160;14.036;2023-03-20T07:07:15;16.37;;;14.97;;
57551;SDS011;43379;48.160;14.036;2023-03-20T07:09:41;17.07;;;15.57;;
57551;SDS011;43379;48.160;14.036;2023-03-20T07:12:13;16.23;;;14.73;;
57551;SDS011;43379;48.160;14.036;2023-03-20T07:14:43;15.90;;;14.60;;
57551;SDS011;43379;48.160;14.036;2023-03-20T07:17:09;15.53;;;14.03;;
57551;SDS011;43379;48.160;14.036;2023-03-20T07:19:36;16.53;;;15.10;;
57551;SDS011;43379;48.160;14.036;2023-03-20T07:22:03;15.23;;;13.93;;
57551;SDS011;43379;48.160;14.036;2023-03-20T07:24:32;15.63;;;14.23;;
57551;SDS011;43379;48.160;14.036;2023-03-20T07:26:58;14.60;;;13.50;;
57551;SDS011;43379;48.160;14.036;2023-03-20T07:29:23;15.50;;;14.10;;
57551;SDS011;43379;48.160;14.036;2023-03-20T07:31:49;15.07;;;13.67;;
57551;SDS011;43379;48.160;14.036;2023-03-20T07:34:16;16.63;;;15.23;;
57551;SDS011;43379;48.160;14.036;2023-03-20T07:36:41;15.87;;;14.60;;
57551;SDS011;43379;48.160;14.036;2023-03-20T07:39:09;14.60;;;13.50;;
57551;SDS011;43379;48.160;14.036;2023-03-20T07:41:36;15.10;;;13.60;;
57551;SDS011;43379;48.160;14.036;2023-03-20T07:44:01;14.20;;;13.00;;
57551;SDS011;43379;48.160;14.036;2023-03-20T07:46:27;14.60;;;13.23;;
57551;SDS011;43379;48.160;14.036;2023-03-20T07:48:53;14.50;;;13.30;;
57551;SDS011;43379;48.160;14.036;2023-03-20T07:51:20;13.00;;;12.00;;
57551;SDS011;43379;48.160;14.036;2023-03-20T07:53:46;13.10;;;11.90;;
57551;SDS011;43379;48.160;14.036;2023-03-20T07:56:11;14.13;;;12.83;;
57551;SDS011;43379;48.160;14.036;2023-03-20T07:58:37;13.57;;;12.37;;
57551;SDS011;43379;48.160;14.036;2023-03-20T08:01:03;14.20;;;13.13;;
57551;SDS011;43379;48.160;14.036;2023-03-20T08:03:28;14.10;;;12.90;;
57551;SDS011;43379;48.160;14.036;2023-03-20T08:05:54;13.17;;;12.07;;
57551;SDS011;43379;48.160;14.036;2023-03-20T08:08:20;13.27;;;12.07;;
57551;SDS011;43379;48.160;14.036;2023-03-20T08:10:47;13.90;;;12.70;;
57551;SDS011;43379;48.160;14.036;2023-03-20T08:13:12;13.37;;;12.17;;
57551;SDS011;43379;48.160;14.036;2023-03-20T08:15:38;13.73;;;12.40;;
57551;SDS011;43379;48.160;14.036;2023-03-20T08:18:04;14.10;;;12.93;;
57551;SDS011;43379;48.160;14.036;2023-03-20T08:20:30;12.50;;;11.60;;
57551;SDS011;43379;48.160;14.036;2023-03-20T08:22:56;13.30;;;12.20;;
57551;SDS011;43379;48.160;14.036;2023-03-20T08:25:22;13.17;;;12.13;;
57551;SDS011;43379;48.160;14.036;2023-03-20T08:27:47;11.60;;;10.70;;
57551;SDS011;43379;48.160;14.036;2023-03-20T08:30:13;12.47;;;11.27;;
57551;SDS011;43379;48.160;14.036;2023-03-20T08:32:39;11.73;;;10.60;;
57551;SDS011;43379;48.160;14.036;2023-03-20T08:35:05;12.50;;;11.50;;
57551;SDS011;43379;48.160;14.036;2023-03-20T08:37:32;10.63;;;9.83;;
57551;SDS011;43379;48.160;14.036;2023-03-20T08:39:58;11.73;;;10.63;;
57551;SDS011;43379;48.160;14.036;2023-03-20T08:42:24;11.80;;;10.83;;
57551;SDS011;43379;48.160;14.036;2023-03-20T08:44:50;11.30;;;10.40;;
57551;SDS011;43379;48.160;14.036;2023-03-20T08:47:16;10.73;;;9.83;;
57551;SDS011;43379;48.160;14.036;2023-03-20T08:49:42;11.30;;;10.50;;
57551;SDS011;43379;48.160;14.036;2023-03-20T08:52:07;11.17;;;10.23;;
57551;SDS011;43379;48.160;14.036;2023-03-20T08:54:33;11.07;;;10.23;;
57551;SDS011;43379;48.160;14.036;2023-03-20T08:56:59;10.17;;;9.27;;
57551;SDS011;43379;48.160;14.036;2023-03-20T08:59:25;10.97;;;9.97;;
57551;SDS011;43379;48.160;14.036;2023-03-20T09:01:50;9.73;;;9.03;;
57551;SDS011;43379;48.160;14.036;2023-03-20T09:04:16;9.20;;;8.60;;
57551;SDS011;43379;48.160;14.036;2023-03-20T09:06:43;10.07;;;9.17;;
57551;SDS011;43379;48.160;14.036;2023-03-20T09:09:08;9.67;;;8.97;;
57551;SDS011;43379;48.160;14.036;2023-03-20T09:11:34;11.07;;;10.27;;
57551;SDS011;43379;48.160;14.036;2023-03-20T09:14:00;10.20;;;9.30;;
57551;SDS011;43379;48.160;14.036;2023-03-20T09:16:26;11.63;;;10.83;;
57551;SDS011;43379;48.160;14.036;2023-03-20T09:18:52;10.27;;;9.57;;
57551;SDS011;43379;48.160;14.036;2023-03-20T09:21:17;11.87;;;11.07;;
57551;SDS011;43379;48.160;14.036;2023-03-20T09:23:43;10.30;;;9.53;;
57551;SDS011;43379;48.160;14.036;2023-03-20T09:26:09;10.73;;;9.73;;
57551;SDS011;43379;48.160;14.036;2023-03-20T09:28:35;11.07;;;10.20;;
57551;SDS011;43379;48.160;14.036;2023-03-20T09:31:01;10.77;;;9.70;;
57551;SDS011;43379;48.160;14.036;2023-03-20T09:33:26;10.23;;;9.43;;
57551;SDS011;43379;48.160;14.036;2023-03-20T09:35:52;10.70;;;9.90;;
57551;SDS011;43379;48.160;14.036;2023-03-20T09:38:17;10.87;;;9.97;;
57551;SDS011;43379;48.160;14.036;2023-03-20T09:40:51;10.43;;;9.63;;
57551;SDS011;43379;48.160;14.036;2023-03-20T09:43:36;10.30;;;9.50;;
57551;SDS011;43379;48.160;14.036;2023-03-20T09:46:29;10.47;;;9.77;;
57551;SDS011;43379;48.160;14.036;2023-03-20T09:50:00;10.17;;;9.37;;
57551;SDS011;43379;48.160;14.036;2023-03-20T09:54:55;10.97;;;9.90;;
57551;SDS011;43379;48.160;14.036;2023-03-20T09:57:28;9.70;;;8.90;;
57551;SDS011;43379;48.160;14.036;2023-03-20T10:00:03;9.77;;;8.90;;
57551;SDS011;43379;48.160;14.036;2023-03-20T10:02:35;9.60;;;8.80;;
57551;SDS011;43379;48.160;14.036;2023-03-20T10:05:24;9.43;;;8.63;;
57551;SDS011;43379;48.160;14.036;2023-03-20T10:08:03;8.50;;;7.90;;
57551;SDS011;43379;48.160;14.036;2023-03-20T10:15:45;8.43;;;7.77;;
57551;SDS011;43379;48.160;14.036;2023-03-20T10:21:26;9.73;;;8.53;;
57551;SDS011;43379;48.160;14.036;2023-03-20T10:23:52;9.40;;;8.43;;
57551;SDS011;43379;48.160;14.036;2023-03-20T10:26:33;8.13;;;7.50;;
57551;SDS011;43379;48.160;14.036;2023-03-20T10:29:00;9.17;;;8.37;;
57551;SDS011;43379;48.160;14.036;2023-03-20T10:39:52;8.17;;;7.50;;
57551;SDS011;43379;48.160;14.036;2023-03-20T10:42:31;8.67;;;7.97;;
57551;SDS011;43379;48.160;14.036;2023-03-20T10:45:05;7.50;;;6.90;;
57551;SDS011;43379;48.160;14.036;2023-03-20T10:47:51;8.50;;;7.80;;
57551;SDS011;43379;48.160;14.036;2023-03-20T10:50:19;8.03;;;7.43;;
57551;SDS011;43379;48.160;14.036;2023-03-20T10:52:52;10.90;;;7.73;;
57551;SDS011;43379;48.160;14.036;2023-03-20T10:55:34;8.47;;;7.03;;
57551;SDS011;43379;48.160;14.036;2023-03-20T10:58:12;7.33;;;6.73;;
57551;SDS011;43379;48.160;14.036;2023-03-20T11:00:44;7.30;;;6.70;;
57551;SDS011;43379;48.160;14.036;2023-03-20T11:03:19;6.97;;;6.47;;
57551;SDS011;43379;48.160;14.036;2023-03-20T11:05:51;7.10;;;6.50;;
57551;SDS011;43379;48.160;14.036;2023-03-20T11:08:21;7.60;;;6.90;;
57551;SDS011;43379;48.160;14.036;2023-03-20T11:10:56;7.40;;;6.70;;
57551;SDS011;43379;48.160;14.036;2023-03-20T11:13:31;7.10;;;6.50;;
57551;SDS011;43379;48.160;14.036;2023-03-20T11:18:40;7.03;;;6.47;;
57551;SDS011;43379;48.160;14.036;2023-03-20T11:21:09;6.93;;;6.43;;
57551;SDS011;43379;48.160;14.036;2023-03-20T11:23:44;7.17;;;6.47;;
57551;SDS011;43379;48.160;14.036;2023-03-20T11:26:14;6.43;;;5.83;;
57551;SDS011;43379;48.160;14.036;2023-03-20T11:28:52;6.50;;;6.00;;
57551;SDS011;43379;48.160;14.036;2023-03-20T11:31:24;6.93;;;6.33;;
57551;SDS011;43379;48.160;14.036;2023-03-20T11:34:09;6.80;;;6.30;;
57551;SDS011;43379;48.160;14.036;2023-03-20T11:36:47;6.90;;;6.30;;
57551;SDS011;43379;48.160;14.036;2023-03-20T11:39:23;5.90;;;5.40;;
57551;SDS011;43379;48.160;14.036;2023-03-20T11:41:56;5.70;;;5.30;;
57551;SDS011;43379;48.160;14.036;2023-03-20T11:49:44;6.23;;;5.47;;
57551;SDS011;43379;48.160;14.036;2023-03-20T11:52:21;6.17;;;5.70;;
57551;SDS011;43379;48.160;14.036;2023-03-20T11:54:53;6.00;;;5.40;;
57551;SDS011;43379;48.160;14.036;2023-03-20T11:57:32;5.40;;;4.97;;
57551;SDS011;43379;48.160;14.036;2023-03-20T12:00:00;9.73;;;5.40;;
57551;SDS011;43379;48.160;14.036;2023-03-20T12:02:40;5.80;;;5.40;;
57551;SDS011;43379;48.160;14.036;2023-03-20T12:07:59;5.90;;;5.40;;
57551;SDS011;43379;48.160;14.036;2023-03-20T12:10:27;7.23;;;5.17;;
57551;SDS011;43379;48.160;14.036;2023-03-20T12:12:59;6.23;;;5.73;;
57551;SDS011;43379;48.160;14.036;2023-03-20T12:15:28;6.53;;;5.93;;
57551;SDS011;43379;48.160;14.036;2023-03-20T12:18:00;6.50;;;5.80;;
57551;SDS011;43379;48.160;14.036;2023-03-20T12:26:20;6.10;;;5.60;;
57551;SDS011;43379;48.160;14.036;2023-03-20T12:28:57;7.23;;;6.33;;
57551;SDS011;43379;48.160;14.036;2023-03-20T12:31:34;6.37;;;5.83;;
57551;SDS011;43379;48.160;14.036;2023-03-20T12:36:42;7.30;;;6.60;;
57551;SDS011;43379;48.160;14.036;2023-03-20T12:39:14;6.40;;;5.67;;
57551;SDS011;43379;48.160;14.036;2023-03-20T12:47:17;6.10;;;5.70;;
57551;SDS011;43379;48.160;14.036;2023-03-20T12:50:25;7.07;;;6.57;;
57551;SDS011;43379;48.160;14.036;2023-03-20T12:53:19;6.23;;;5.73;;
57551;SDS011;43379;48.160;14.036;2023-03-20T13:18:58;7.97;;;7.17;;
57551;SDS011;43379;48.160;14.036;2023-03-20T13:34:58;7.77;;;7.17;;
57551;SDS011;43379;48.160;14.036;2023-03-20T13:37:46;9.30;;;6.43;;
57551;SDS011;43379;48.160;14.036;2023-03-20T13:43:12;8.40;;;7.60;;
57551;SDS011;43379;48.160;14.036;2023-03-20T13:45:55;7.27;;;6.67;;
57551;SDS011;43379;48.160;14.036;2023-03-20T13:59:29;8.53;;;7.83;;
57551;SDS011;43379;48.160;14.036;2023-03-20T14:04:39;8.03;;;7.43;;
57551;SDS011;43379;48.160;14.036;2023-03-20T14:07:25;8.10;;;7.40;;
57551;SDS011;43379;48.160;14.036;2023-03-20T14:09:52;8.37;;;7.70;;
57551;SDS011;43379;48.160;14.036;2023-03-20T14:12:18;7.77;;;7.07;;
57551;SDS011;43379;48.160;14.036;2023-03-20T14:17:29;8.00;;;7.30;;
57551;SDS011;43379;48.160;14.036;2023-03-20T14:19:56;8.10;;;7.40;;
57551;SDS011;43379;48.160;14.036;2023-03-20T14:22:34;8.00;;;7.30;;
57551;SDS011;43379;48.160;14.036;2023-03-20T14:25:03;7.07;;;6.47;;
57551;SDS011;43379;48.160;14.036;2023-03-20T14:27:36;8.07;;;7.47;;
57551;SDS011;43379;48.160;14.036;2023-03-20T14:33:04;8.07;;;7.27;;
57551;SDS011;43379;48.160;14.036;2023-03-20T14:35:38;7.60;;;7.00;;
57551;SDS011;43379;48.160;14.036;2023-03-20T14:38:24;8.87;;;8.03;;
57551;SDS011;43379;48.160;14.036;2023-03-20T14:48:43;7.80;;;6.70;;
57551;SDS011;43379;48.160;14.036;2023-03-20T14:56:45;7.63;;;7.10;;
57551;SDS011;43379;48.160;14.036;2023-03-20T14:59:12;7.60;;;7.00;;
57551;SDS011;43379;48.160;14.036;2023-03-20T15:01:42;7.80;;;7.20;;
57551;SDS011;43379;48.160;14.036;2023-03-20T15:04:22;8.50;;;7.27;;
57551;SDS011;43379;48.160;14.036;2023-03-20T15:06:54;7.30;;;6.73;;
57551;SDS011;43379;48.160;14.036;2023-03-20T15:09:42;6.70;;;5.90;;
57551;SDS011;43379;48.160;14.036;2023-03-20T15:12:14;7.27;;;6.67;;
57551;SDS011;43379;48.160;14.036;2023-03-20T15:14:44;6.47;;;6.00;;
57551;SDS011;43379;48.160;14.036;2023-03-20T15:17:24;6.60;;;6.00;;
57551;SDS011;43379;48.160;14.036;2023-03-20T15:19:59;6.00;;;5.57;;
57551;SDS011;43379;48.160;14.036;2023-03-20T15:22:51;6.60;;;6.10;;
57551;SDS011;43379;48.160;14.036;2023-03-20T15:25:19;5.73;;;5.20;;
57551;SDS011;43379;48.160;14.036;2023-03-20T15:27:45;7.13;;;4.37;;
57551;SDS011;43379;48.160;14.036;2023-03-20T15:30:13;3.90;;;3.60;;
57551;SDS011;43379;48.160;14.036;2023-03-20T15:32:41;3.37;;;3.07;;
57551;SDS011;43379;48.160;14.036;2023-03-20T15:35:15;3.10;;;2.90;;
57551;SDS011;43379;48.160;14.036;2023-03-20T15:37:45;3.50;;;3.13;;
57551;SDS011;43379;48.160;14.036;2023-03-20T15:40:23;4.33;;;3.40;;
57551;SDS011;43379;48.160;14.036;2023-03-20T15:42:53;3.87;;;3.53;;
57551;SDS011;43379;48.160;14.036;2023-03-20T15:45:26;4.23;;;3.80;;
57551;SDS011;43379;48.160;14.036;2023-03-20T15:48:15;4.30;;;3.90;;
57551;SDS011;43379;48.160;14.036;2023-03-20T15:50:44;3.70;;;3.40;;
57551;SDS011;43379;48.160;14.036;2023-03-20T15:53:21;2.83;;;2.63;;
57551;SDS011;43379;48.160;14.036;2023-03-20T15:56:07;3.80;;;3.50;;
57551;SDS011;43379;48.160;14.036;2023-03-20T15:58:39;3.00;;;2.80;;
57551;SDS011;43379;48.160;14.036;2023-03-20T16:01:07;3.57;;;3.27;;
57551;SDS011;43379;48.160;14.036;2023-03-20T16:03:38;3.30;;;3.10;;
57551;SDS011;43379;48.160;14.036;2023-03-20T16:06:07;4.37;;;3.40;;
57551;SDS011;43379;48.160;14.036;2023-03-20T16:08:35;3.63;;;3.33;;
57551;SDS011;43379;48.160;14.036;2023-03-20T16:11:05;3.20;;;3.00;;
57551;SDS011;43379;48.160;14.036;2023-03-20T16:13:41;3.80;;;3.50;;
57551;SDS011;43379;48.160;14.036;2023-03-20T16:16:12;3.57;;;3.20;;
57551;SDS011;43379;48.160;14.036;2023-03-20T16:18:40;3.43;;;3.23;;
57551;SDS011;43379;48.160;14.036;2023-03-20T16:21:13;3.50;;;3.20;;
57551;SDS011;43379;48.160;14.036;2023-03-20T16:23:52;3.33;;;3.03;;
57551;SDS011;43379;48.160;14.036;2023-03-20T16:26:21;3.50;;;3.00;;
57551;SDS011;43379;48.160;14.036;2023-03-20T16:28:49;3.50;;;3.20;;
57551;SDS011;43379;48.160;14.036;2023-03-20T16:31:21;3.60;;;3.30;;
57551;SDS011;43379;48.160;14.036;2023-03-20T16:33:50;3.07;;;2.87;;
57551;SDS011;43379;48.160;14.036;2023-03-20T16:36:18;3.10;;;2.90;;
57551;SDS011;43379;48.160;14.036;2023-03-20T16:38:54;3.90;;;2.97;;
57551;SDS011;43379;48.160;14.036;2023-03-20T16:41:29;3.47;;;3.17;;
57551;SDS011;43379;48.160;14.036;2023-03-20T16:44:15;3.43;;;3.13;;
57551;SDS011;43379;48.160;14.036;2023-03-20T16:46:59;3.87;;;3.30;;
57551;SDS011;43379;48.160;14.036;2023-03-20T16:51:58;3.57;;;3.27;;
57551;SDS011;43379;48.160;14.036;2023-03-20T16:54:28;4.27;;;3.00;;
57551;SDS011;43379;48.160;14.036;2023-03-20T16:56:55;3.23;;;2.93;;
57551;SDS011;43379;48.160;14.036;2023-03-20T16:59:21;4.23;;;3.47;;
57551;SDS011;43379;48.160;14.036;2023-03-20T17:01:49;3.53;;;3.23;;
57551;SDS011;43379;48.160;14.036;2023-03-20T17:07:00;3.30;;;3.00;;
57551;SDS011;43379;48.160;14.036;2023-03-20T17:09:30;3.50;;;3.20;;
57551;SDS011;43379;48.160;14.036;2023-03-20T17:12:01;4.20;;;3.80;;
57551;SDS011;43379;48.160;14.036;2023-03-20T17:14:41;4.60;;;3.77;;
57551;SDS011;43379;48.160;14.036;2023-03-20T17:17:11;5.40;;;4.90;;
57551;SDS011;43379;48.160;14.036;2023-03-20T17:19:41;5.13;;;3.60;;
57551;SDS011;43379;48.160;14.036;2023-03-20T17:22:21;4.00;;;3.70;;
57551;SDS011;43379;48.160;14.036;2023-03-20T17:24:49;4.20;;;3.80;;
57551;SDS011;43379;48.160;14.036;2023-03-20T17:27:15;4.87;;;4.47;;
57551;SDS011;43379;48.160;14.036;2023-03-20T17:29:42;6.07;;;4.70;;
57551;SDS011;43379;48.160;14.036;2023-03-20T17:32:13;5.47;;;4.97;;
57551;SDS011;43379;48.160;14.036;2023-03-20T17:34:41;7.33;;;4.73;;
57551;SDS011;43379;48.160;14.036;2023-03-20T17:37:14;5.53;;;5.03;;